sensor_id;sensor_type;location;lat;lon;timestamp;pressure;altitude;pressure_sealevel;temperature;humidity
71964;BME280;59834;52.124;5.422;2022-08-01T00:00:04;101694.25;;;18.76;85.50
71964;BME280;59834;52.124;5.422;2022-08-01T00:02:36;101701.38;;;18.75;85.84
71964;BME280;59834;52.124;5.422;2022-08-01T00:05:05;101707.53;;;18.76;85.63
71964;BME280;59834;52.124;5.422;2022-08-01T00:07:33;101702.22;;;18.76;85.79
71964;BME280;59834;52.124;5.422;2022-08-01T00:09:59;101704.28;;;18.72;85.58
71964;BME280;59834;52.124;5.422;2022-08-01T00:12:26;101709.69;;;18.71;85.84
71964;BME280;59834;52.124;5.422;2022-08-01T00:14:52;101708.84;;;18.70;85.79
71964;BME280;59834;52.124;5.422;2022-08-01T00:17:19;101704.63;;;18.68;85.93
71964;BME280;59834;52.124;5.422;2022-08-01T00:19:46;101709.25;;;18.66;86.45
71964;BME280;59834;52.124;5.422;2022-08-01T00:22:12;101711.31;;;18.62;86.56
71964;BME280;59834;52.124;5.422;2022-08-01T00:24:39;101710.59;;;18.60;86.69
71964;BME280;59834;52.124;5.422;2022-08-01T00:27:05;101710.59;;;18.60;86.54
71964;BME280;59834;52.124;5.422;2022-08-01T00:29:32;101710.72;;;18.58;86.96
71964;BME280;59834;52.124;5.422;2022-08-01T00:32:19;101711.56;;;18.59;87.29
71964;BME280;59834;52.124;5.422;2022-08-01T00:34:45;101714.06;;;18.60;87.27
71964;BME280;59834;52.124;5.422;2022-08-01T00:37:12;101714.91;;;18.61;86.72
71964;BME280;59834;52.124;5.422;2022-08-01T00:39:41;101710.59;;;18.60;87.10
71964;BME280;59834;52.124;5.422;2022-08-01T00:42:12;101714.47;;;18.56;87.28
71964;BME280;59834;52.124;5.422;2022-08-01T00:44:39;101706.66;;;18.54;87.31
71964;BME280;59834;52.124;5.422;2022-08-01T00:47:07;101714.13;;;18.49;87.50
71964;BME280;59834;52.124;5.422;2022-08-01T00:49:34;101706.31;;;18.48;88.13
71964;BME280;59834;52.124;5.422;2022-08-01T00:52:03;101708.97;;;18.48;87.95
71964;BME280;59834;52.124;5.422;2022-08-01T00:54:32;101706.31;;;18.48;87.89
71964;BME280;59834;52.124;5.422;2022-08-01T00:56:58;101716.06;;;18.47;87.89
71964;BME280;59834;52.124;5.422;2022-08-01T00:59:26;101713.41;;;18.47;87.73
71964;BME280;59834;52.124;5.422;2022-08-01T01:01:54;101721.50;;;18.46;87.71
71964;BME280;59834;52.124;5.422;2022-08-01T01:04:22;101717.28;;;18.43;87.79
71964;BME280;59834;52.124;5.422;2022-08-01T01:07:13;101713.06;;;18.41;87.51
71964;BME280;59834;52.124;5.422;2022-08-01T01:10:00;101716.69;;;18.40;87.62
71964;BME280;59834;52.124;5.422;2022-08-01T01:15:30;101717.69;;;18.38;88.70
71964;BME280;59834;52.124;5.422;2022-08-01T01:18:01;101709.72;;;18.38;88.49
71964;BME280;59834;52.124;5.422;2022-08-01T01:20:35;101712.38;;;18.38;88.57
71964;BME280;59834;52.124;5.422;2022-08-01T01:28:40;101709.84;;;18.37;88.54
71964;BME280;59834;52.124;5.422;2022-08-01T01:31:11;101709.97;;;18.35;89.12
71964;BME280;59834;52.124;5.422;2022-08-01T01:33:40;101706.59;;;18.33;89.08
71964;BME280;59834;52.124;5.422;2022-08-01T01:36:13;101712.63;;;18.35;88.96
71964;BME280;59834;52.124;5.422;2022-08-01T01:38:42;101696.00;;;18.33;89.00
71964;BME280;59834;52.124;5.422;2022-08-01T01:41:12;101705.06;;;18.31;89.15
71964;BME280;59834;52.124;5.422;2022-08-01T01:43:40;101707.09;;;18.27;89.13
71964;BME280;59834;52.124;5.422;2022-08-01T01:46:09;101716.63;;;18.30;89.84
71964;BME280;59834;52.124;5.422;2022-08-01T01:48:38;101709.50;;;18.30;89.09
71964;BME280;59834;52.124;5.422;2022-08-01T01:51:05;101709.50;;;18.30;89.42
71964;BME280;59834;52.124;5.422;2022-08-01T01:53:34;101712.16;;;18.30;88.98
71964;BME280;59834;52.124;5.422;2022-08-01T01:56:02;101708.66;;;18.30;89.30
71964;BME280;59834;52.124;5.422;2022-08-01T01:58:28;101715.78;;;18.29;89.78
71964;BME280;59834;52.124;5.422;2022-08-01T02:00:58;101712.28;;;18.29;89.76
71964;BME280;59834;52.124;5.422;2022-08-01T02:03:30;101713.13;;;18.29;89.81
71964;BME280;59834;52.124;5.422;2022-08-01T02:05:59;101710.47;;;18.29;89.74
71964;BME280;59834;52.124;5.422;2022-08-01T02:08:26;101717.59;;;18.29;90.00
71964;BME280;59834;52.124;5.422;2022-08-01T02:10:58;101715.91;;;18.28;90.12
71964;BME280;59834;52.124;5.422;2022-08-01T02:13:52;101705.44;;;18.26;89.60
71964;BME280;59834;52.124;5.422;2022-08-01T02:16:23;101718.69;;;18.26;90.17
71964;BME280;59834;52.124;5.422;2022-08-01T02:18:50;101709.06;;;18.25;89.65
71964;BME280;59834;52.124;5.422;2022-08-01T02:21:23;101716.03;;;18.26;90.00
71964;BME280;59834;52.124;5.422;2022-08-01T02:23:51;101713.38;;;18.26;90.05
71964;BME280;59834;52.124;5.422;2022-08-01T02:26:19;101716.03;;;18.26;90.30
71964;BME280;59834;52.124;5.422;2022-08-01T02:29:02;101707.38;;;18.24;89.62
71964;BME280;59834;52.124;5.422;2022-08-01T02:31:32;101711.81;;;18.24;89.93
71964;BME280;59834;52.124;5.422;2022-08-01T02:34:04;101717.00;;;18.25;90.15
71964;BME280;59834;52.124;5.422;2022-08-01T02:36:36;101722.16;;;18.27;90.15
71964;BME280;59834;52.124;5.422;2022-08-01T02:39:08;101714.34;;;18.25;89.83
71964;BME280;59834;52.124;5.422;2022-08-01T02:41:38;101717.00;;;18.25;89.62
71964;BME280;59834;52.124;5.422;2022-08-01T02:44:07;101717.25;;;18.22;90.44
71964;BME280;59834;52.124;5.422;2022-08-01T02:46:40;101722.66;;;18.21;90.63
71964;BME280;59834;52.124;5.422;2022-08-01T02:49:09;101719.19;;;18.20;90.02
71964;BME280;59834;52.124;5.422;2022-08-01T02:51:39;101720.88;;;18.21;90.27
71964;BME280;59834;52.124;5.422;2022-08-01T02:54:07;101721.97;;;18.19;89.90
71964;BME280;59834;52.124;5.422;2022-08-01T02:56:35;101722.06;;;18.17;90.44
71964;BME280;59834;52.124;5.422;2022-08-01T02:59:05;101728.25;;;18.18;90.57
71964;BME280;59834;52.124;5.422;2022-08-01T03:01:36;101717.75;;;18.16;90.20
71964;BME280;59834;52.124;5.422;2022-08-01T03:04:07;101734.63;;;18.15;90.30
71964;BME280;59834;52.124;5.422;2022-08-01T03:06:35;101724.13;;;18.13;90.67
71964;BME280;59834;52.124;5.422;2022-08-01T03:09:03;101725.94;;;18.13;90.39
71964;BME280;59834;52.124;5.422;2022-08-01T03:11:31;101719.94;;;18.11;90.27
71964;BME280;59834;52.124;5.422;2022-08-01T03:14:01;101711.13;;;18.10;90.71
71964;BME280;59834;52.124;5.422;2022-08-01T03:16:30;101704.16;;;18.09;90.25
71964;BME280;59834;52.124;5.422;2022-08-01T03:18:58;101718.25;;;18.10;90.37
71964;BME280;59834;52.124;5.422;2022-08-01T03:21:27;101710.28;;;18.10;90.97
71964;BME280;59834;52.124;5.422;2022-08-01T03:23:57;101713.94;;;18.09;90.96
71964;BME280;59834;52.124;5.422;2022-08-01T03:26:30;101718.38;;;18.08;90.46
71964;BME280;59834;52.124;5.422;2022-08-01T03:29:10;101720.19;;;18.08;90.72
71964;BME280;59834;52.124;5.422;2022-08-01T03:31:39;101722.84;;;18.08;90.39
71964;BME280;59834;52.124;5.422;2022-08-01T03:34:09;101723.69;;;18.08;90.22
71964;BME280;59834;52.124;5.422;2022-08-01T03:36:45;101729.09;;;18.07;90.36
71964;BME280;59834;52.124;5.422;2022-08-01T03:39:16;101723.78;;;18.07;91.01
71964;BME280;59834;52.124;5.422;2022-08-01T03:41:55;101716.81;;;18.06;90.35
71964;BME280;59834;52.124;5.422;2022-08-01T03:44:27;101729.09;;;18.07;90.93
71964;BME280;59834;52.124;5.422;2022-08-01T03:47:05;101731.75;;;18.07;90.39
71964;BME280;59834;52.124;5.422;2022-08-01T03:49:36;101723.09;;;18.05;90.82
71964;BME280;59834;52.124;5.422;2022-08-01T03:52:06;101731.16;;;18.03;90.67
71964;BME280;59834;52.124;5.422;2022-08-01T03:54:36;101725.00;;;18.03;90.65
71964;BME280;59834;52.124;5.422;2022-08-01T03:57:04;101726.97;;;18.01;90.47
71964;BME280;59834;52.124;5.422;2022-08-01T03:59:32;101729.13;;;17.96;90.03
71964;BME280;59834;52.124;5.422;2022-08-01T04:02:00;101737.31;;;17.93;90.49
71964;BME280;59834;52.124;5.422;2022-08-01T04:04:28;101727.94;;;17.88;90.92
71964;BME280;59834;52.124;5.422;2022-08-01T04:06:55;101737.81;;;17.86;91.14
71964;BME280;59834;52.124;5.422;2022-08-01T04:09:22;101724.81;;;17.83;90.38
71964;BME280;59834;52.124;5.422;2022-08-01T04:11:48;101732.88;;;17.82;90.62
71964;BME280;59834;52.124;5.422;2022-08-01T04:14:15;101733.13;;;17.79;90.60
71964;BME280;59834;52.124;5.422;2022-08-01T04:16:41;101734.09;;;17.78;90.69
71964;BME280;59834;52.124;5.422;2022-08-01T04:19:08;101736.75;;;17.78;90.67
71964;BME280;59834;52.124;5.422;2022-08-01T04:21:36;101740.09;;;17.80;91.01
71964;BME280;59834;52.124;5.422;2022-08-01T04:24:10;101750.44;;;17.83;90.78
71964;BME280;59834;52.124;5.422;2022-08-01T04:26:39;101747.69;;;17.84;90.15
71964;BME280;59834;52.124;5.422;2022-08-01T04:29:08;101746.59;;;17.87;90.95
71964;BME280;59834;52.124;5.422;2022-08-01T04:31:36;101749.13;;;17.88;90.27
71964;BME280;59834;52.124;5.422;2022-08-01T04:34:06;101749.13;;;17.88;90.71
71964;BME280;59834;52.124;5.422;2022-08-01T04:36:35;101754.44;;;17.88;90.25
71964;BME280;59834;52.124;5.422;2022-08-01T04:39:04;101759.72;;;17.88;91.10
71964;BME280;59834;52.124;5.422;2022-08-01T04:41:32;101758.66;;;17.91;90.26
71964;BME280;59834;52.124;5.422;2022-08-01T04:43:59;101765.38;;;17.95;90.40
71964;BME280;59834;52.124;5.422;2022-08-01T04:46:27;101758.03;;;17.99;90.00
71964;BME280;59834;52.124;5.422;2022-08-01T04:48:54;101761.13;;;18.04;89.46
71964;BME280;59834;52.124;5.422;2022-08-01T04:51:21;101768.81;;;18.07;89.34
71964;BME280;59834;52.124;5.422;2022-08-01T04:53:49;101768.81;;;18.07;89.22
71964;BME280;59834;52.124;5.422;2022-08-01T04:56:18;101774.97;;;18.07;88.36
71964;BME280;59834;52.124;5.422;2022-08-01T04:58:47;101772.59;;;18.04;88.03
71964;BME280;59834;52.124;5.422;2022-08-01T05:01:13;101779.31;;;17.97;87.54
71964;BME280;59834;52.124;5.422;2022-08-01T05:03:40;101780.44;;;17.95;87.81
71964;BME280;59834;52.124;5.422;2022-08-01T05:06:07;101781.50;;;17.92;87.47
71964;BME280;59834;52.124;5.422;2022-08-01T05:08:33;101793.78;;;17.93;87.66
71964;BME280;59834;52.124;5.422;2022-08-01T05:11:00;101782.34;;;17.93;87.57
71964;BME280;59834;52.124;5.422;2022-08-01T05:13:27;101785.13;;;17.91;87.98
71964;BME280;59834;52.124;5.422;2022-08-01T05:15:53;101793.19;;;17.89;87.19
71964;BME280;59834;52.124;5.422;2022-08-01T05:18:20;101789.34;;;17.82;87.79
71964;BME280;59834;52.124;5.422;2022-08-01T05:20:54;101799.19;;;17.80;87.48
71964;BME280;59834;52.124;5.422;2022-08-01T05:23:20;101790.31;;;17.81;87.88
71964;BME280;59834;52.124;5.422;2022-08-01T05:26:07;101784.50;;;17.76;87.80
71964;BME280;59834;52.124;5.422;2022-08-01T05:28:35;101794.38;;;17.74;87.62
71964;BME280;59834;52.124;5.422;2022-08-01T05:31:02;101797.38;;;17.70;87.54
71964;BME280;59834;52.124;5.422;2022-08-01T05:33:29;101793.03;;;17.68;87.90
71964;BME280;59834;52.124;5.422;2022-08-01T05:35:55;101798.94;;;17.72;88.31
71964;BME280;59834;52.124;5.422;2022-08-01T05:38:22;101802.41;;;17.73;88.48
71964;BME280;59834;52.124;5.422;2022-08-01T05:40:49;101802.66;;;17.70;87.97
71964;BME280;59834;52.124;5.422;2022-08-01T05:43:15;101803.50;;;17.70;89.07
71964;BME280;59834;52.124;5.422;2022-08-01T05:45:42;101809.03;;;17.67;88.89
71964;BME280;59834;52.124;5.422;2022-08-01T05:48:10;101812.78;;;17.64;89.35
71964;BME280;59834;52.124;5.422;2022-08-01T05:50:37;101810.47;;;17.60;89.71
71964;BME280;59834;52.124;5.422;2022-08-01T05:53:03;101807.34;;;17.66;89.09
71964;BME280;59834;52.124;5.422;2022-08-01T05:55:30;101810.72;;;17.68;88.52
71964;BME280;59834;52.124;5.422;2022-08-01T05:57:56;101805.19;;;17.71;88.36
71964;BME280;59834;52.124;5.422;2022-08-01T06:00:22;101807.84;;;17.71;88.10
71964;BME280;59834;52.124;5.422;2022-08-01T06:02:49;101807.47;;;17.76;88.71
71964;BME280;59834;52.124;5.422;2022-08-01T06:05:16;101814.00;;;17.83;88.42
71964;BME280;59834;52.124;5.422;2022-08-01T06:07:42;101810.75;;;17.90;88.97
71964;BME280;59834;52.124;5.422;2022-08-01T06:10:09;101818.97;;;17.87;88.42
71964;BME280;59834;52.124;5.422;2022-08-01T06:12:36;101818.59;;;17.92;89.19
71964;BME280;59834;52.124;5.422;2022-08-01T06:15:04;101820.84;;;17.97;88.81
71964;BME280;59834;52.124;5.422;2022-08-01T06:17:31;101818.34;;;17.95;88.14
71964;BME280;59834;52.124;5.422;2022-08-01T06:19:57;101818.94;;;17.99;88.25
71964;BME280;59834;52.124;5.422;2022-08-01T06:22:23;101815.56;;;18.08;88.61
71964;BME280;59834;52.124;5.422;2022-08-01T06:24:51;101811.56;;;18.13;88.42
71964;BME280;59834;52.124;5.422;2022-08-01T06:27:17;101814.34;;;18.12;88.48
71964;BME280;59834;52.124;5.422;2022-08-01T06:29:47;101816.06;;;18.02;88.03
71964;BME280;59834;52.124;5.422;2022-08-01T06:32:19;101815.56;;;17.97;88.16
71964;BME280;59834;52.124;5.422;2022-08-01T06:34:52;101820.63;;;17.88;88.93
71964;BME280;59834;52.124;5.422;2022-08-01T06:37:19;101814.97;;;17.82;89.02
71964;BME280;59834;52.124;5.422;2022-08-01T06:39:45;101823.75;;;17.82;89.17
71964;BME280;59834;52.124;5.422;2022-08-01T06:42:12;101823.03;;;17.80;89.32
71964;BME280;59834;52.124;5.422;2022-08-01T06:44:41;101821.34;;;17.79;89.53
71964;BME280;59834;52.124;5.422;2022-08-01T06:47:07;101830.38;;;17.77;90.23
71964;BME280;59834;52.124;5.422;2022-08-01T06:49:34;101840.13;;;17.76;90.40
71964;BME280;59834;52.124;5.422;2022-08-01T06:52:00;101834.81;;;17.76;90.11
71964;BME280;59834;52.124;5.422;2022-08-01T06:54:27;101837.38;;;17.78;89.78
71964;BME280;59834;52.124;5.422;2022-08-01T06:56:53;101844.47;;;17.77;90.52
71964;BME280;59834;52.124;5.422;2022-08-01T06:59:19;101842.53;;;17.79;90.73
71964;BME280;59834;52.124;5.422;2022-08-01T07:01:46;101840.72;;;17.80;89.88
71964;BME280;59834;52.124;5.422;2022-08-01T07:04:12;101842.53;;;17.79;89.77
71964;BME280;59834;52.124;5.422;2022-08-01T07:06:39;101841.56;;;17.80;90.62
71964;BME280;59834;52.124;5.422;2022-08-01T07:09:05;101841.91;;;17.76;90.11
71964;BME280;59834;52.124;5.422;2022-08-01T07:11:38;101847.19;;;17.76;89.85
71964;BME280;59834;52.124;5.422;2022-08-01T07:14:05;101854.19;;;17.77;90.59
71964;BME280;59834;52.124;5.422;2022-08-01T07:16:31;101844.47;;;17.77;90.19
71964;BME280;59834;52.124;5.422;2022-08-01T07:18:58;101846.72;;;17.71;90.56
71964;BME280;59834;52.124;5.422;2022-08-01T07:21:24;101845.03;;;17.70;91.18
71964;BME280;59834;52.124;5.422;2022-08-01T07:24:08;101852.63;;;17.74;91.20
71964;BME280;59834;52.124;5.422;2022-08-01T07:26:41;101855.06;;;17.77;91.21
71964;BME280;59834;52.124;5.422;2022-08-01T07:29:23;101855.53;;;17.82;90.70
71964;BME280;59834;52.124;5.422;2022-08-01T07:31:55;101860.59;;;17.85;90.30
71964;BME280;59834;52.124;5.422;2022-08-01T07:34:22;101855.31;;;17.85;90.47
71964;BME280;59834;52.124;5.422;2022-08-01T07:36:50;101859.53;;;17.88;90.04
71964;BME280;59834;52.124;5.422;2022-08-01T07:39:16;101861.91;;;17.80;88.75
71964;BME280;59834;52.124;5.422;2022-08-01T07:41:43;101862.03;;;17.78;89.30
71964;BME280;59834;52.124;5.422;2022-08-01T07:44:29;101871.91;;;17.76;89.41
71964;BME280;59834;52.124;5.422;2022-08-01T07:46:55;101870.44;;;17.72;88.39
71964;BME280;59834;52.124;5.422;2022-08-01T07:49:22;101875.13;;;17.68;87.29
71964;BME280;59834;52.124;5.422;2022-08-01T07:51:48;101880.41;;;17.68;88.17
71964;BME280;59834;52.124;5.422;2022-08-01T07:54:33;101891.97;;;17.67;87.90
71964;BME280;59834;52.124;5.422;2022-08-01T07:57:01;101888.44;;;17.67;88.15
71964;BME280;59834;52.124;5.422;2022-08-01T07:59:28;101884.88;;;17.68;88.12
71964;BME280;59834;52.124;5.422;2022-08-01T08:01:54;101889.94;;;17.71;87.76
71964;BME280;59834;52.124;5.422;2022-08-01T08:04:21;101891.38;;;17.75;88.37
71964;BME280;59834;52.124;5.422;2022-08-01T08:06:47;101899.97;;;17.79;88.45
71964;BME280;59834;52.124;5.422;2022-08-01T08:09:15;101897.69;;;17.85;88.38
71964;BME280;59834;52.124;5.422;2022-08-01T08:11:45;101896.59;;;17.88;88.01
71964;BME280;59834;52.124;5.422;2022-08-01T08:14:14;101899.25;;;17.88;86.62
71964;BME280;59834;52.124;5.422;2022-08-01T08:16:42;101898.88;;;17.93;87.07
71964;BME280;59834;52.124;5.422;2022-08-01T08:19:08;101902.13;;;17.96;85.82
71964;BME280;59834;52.124;5.422;2022-08-01T08:21:35;101898.16;;;18.02;84.49
71964;BME280;59834;52.124;5.422;2022-08-01T08:24:02;101902.13;;;18.07;84.30
71964;BME280;59834;52.124;5.422;2022-08-01T08:26:57;101910.22;;;18.28;83.84
71964;BME280;59834;52.124;5.422;2022-08-01T08:29:25;101915.13;;;18.44;82.90
71964;BME280;59834;52.124;5.422;2022-08-01T08:31:53;101909.81;;;18.44;82.35
71964;BME280;59834;52.124;5.422;2022-08-01T08:34:22;101915.13;;;18.44;82.54
71964;BME280;59834;52.124;5.422;2022-08-01T08:36:49;101916.09;;;18.43;81.51
71964;BME280;59834;52.124;5.422;2022-08-01T08:39:16;101912.97;;;18.49;81.59
71964;BME280;59834;52.124;5.422;2022-08-01T08:41:46;101915.34;;;18.64;81.53
71964;BME280;59834;52.124;5.422;2022-08-01T08:44:15;101921.72;;;18.61;81.41
71964;BME280;59834;52.124;5.422;2022-08-01T08:46:48;101919.44;;;18.56;81.30
71964;BME280;59834;52.124;5.422;2022-08-01T08:49:18;101926.69;;;18.54;81.73
71964;BME280;59834;52.124;5.422;2022-08-01T08:51:48;101933.31;;;18.60;80.64
71964;BME280;59834;52.124;5.422;2022-08-01T08:54:18;101926.22;;;18.72;80.81
71964;BME280;59834;52.124;5.422;2022-08-01T08:56:46;101922.66;;;18.94;80.32
71964;BME280;59834;52.124;5.422;2022-08-01T08:59:13;101918.75;;;18.98;78.79
71964;BME280;59834;52.124;5.422;2022-08-01T09:01:41;101926.88;;;18.96;79.43
71964;BME280;59834;52.124;5.422;2022-08-01T09:04:08;101927.69;;;18.97;77.25
71964;BME280;59834;52.124;5.422;2022-08-01T09:06:35;101925.09;;;18.86;78.22
71964;BME280;59834;52.124;5.422;2022-08-01T09:09:02;101925.06;;;18.97;79.57
71964;BME280;59834;52.124;5.422;2022-08-01T09:11:29;101932.94;;;19.19;78.83
71964;BME280;59834;52.124;5.422;2022-08-01T09:14:16;101942.16;;;19.36;77.45
71964;BME280;59834;52.124;5.422;2022-08-01T09:17:03;101943.19;;;19.45;77.85
71964;BME280;59834;52.124;5.422;2022-08-01T09:19:37;101939.50;;;19.57;77.67
71964;BME280;59834;52.124;5.422;2022-08-01T09:22:09;101943.50;;;19.84;75.18
71964;BME280;59834;52.124;5.422;2022-08-01T09:24:37;101945.56;;;19.80;73.78
71964;BME280;59834;52.124;5.422;2022-08-01T09:27:21;101949.84;;;19.71;74.23
71964;BME280;59834;52.124;5.422;2022-08-01T09:29:51;101947.44;;;19.68;71.69
71964;BME280;59834;52.124;5.422;2022-08-01T09:32:30;101951.28;;;19.75;70.74
71964;BME280;59834;52.124;5.422;2022-08-01T09:35:37;101952.03;;;19.87;72.04
71964;BME280;59834;52.124;5.422;2022-08-01T09:38:18;101949.75;;;20.04;70.74
71964;BME280;59834;52.124;5.422;2022-08-01T09:40:56;101957.31;;;20.08;71.19
71964;BME280;59834;52.124;5.422;2022-08-01T09:43:27;101950.84;;;20.01;71.99
71964;BME280;59834;52.124;5.422;2022-08-01T09:45:54;101956.88;;;20.03;69.13
71964;BME280;59834;52.124;5.422;2022-08-01T09:48:23;101963.31;;;20.00;69.75
71964;BME280;59834;52.124;5.422;2022-08-01T09:50:56;101965.53;;;19.95;69.85
71964;BME280;59834;52.124;5.422;2022-08-01T09:53:48;101966.00;;;20.10;69.89
71964;BME280;59834;52.124;5.422;2022-08-01T09:56:19;101964.47;;;20.08;68.36
71964;BME280;59834;52.124;5.422;2022-08-01T09:58:56;101969.50;;;20.11;68.79
71964;BME280;59834;52.124;5.422;2022-08-01T10:01:27;101963.72;;;20.27;67.80
71964;BME280;59834;52.124;5.422;2022-08-01T10:04:08;101969.03;;;20.57;67.10
71964;BME280;59834;52.124;5.422;2022-08-01T10:06:38;101967.28;;;20.77;64.21
71964;BME280;59834;52.124;5.422;2022-08-01T10:09:06;101966.81;;;20.72;64.87
71964;BME280;59834;52.124;5.422;2022-08-01T10:11:32;101968.94;;;20.78;62.71
71964;BME280;59834;52.124;5.422;2022-08-01T10:14:02;101972.19;;;20.82;62.94
71964;BME280;59834;52.124;5.422;2022-08-01T10:16:29;101970.53;;;21.00;62.16
71964;BME280;59834;52.124;5.422;2022-08-01T10:18:56;101974.34;;;21.27;61.69
71964;BME280;59834;52.124;5.422;2022-08-01T10:21:25;101965.81;;;21.52;60.41
71964;BME280;59834;52.124;5.422;2022-08-01T10:24:13;101970.31;;;21.42;59.28
71964;BME280;59834;52.124;5.422;2022-08-01T10:26:48;101967.75;;;21.21;59.62
71964;BME280;59834;52.124;5.422;2022-08-01T10:29:16;101972.97;;;21.42;58.04
71964;BME280;59834;52.124;5.422;2022-08-01T10:32:05;101970.00;;;21.64;56.12
71964;BME280;59834;52.124;5.422;2022-08-01T10:34:33;101970.84;;;21.65;56.13
71964;BME280;59834;52.124;5.422;2022-08-01T10:37:01;101965.34;;;21.76;57.23
71964;BME280;59834;52.124;5.422;2022-08-01T10:39:31;101967.50;;;22.20;55.96
71964;BME280;59834;52.124;5.422;2022-08-01T10:41:59;101970.09;;;21.92;56.66
71964;BME280;59834;52.124;5.422;2022-08-01T10:44:28;101970.50;;;22.17;57.00
71964;BME280;59834;52.124;5.422;2022-08-01T10:47:01;101968.09;;;22.23;56.70
71964;BME280;59834;52.124;5.422;2022-08-01T10:49:53;101966.00;;;22.07;56.89
71964;BME280;59834;52.124;5.422;2022-08-01T10:52:22;101963.72;;;22.22;56.38
71964;BME280;59834;52.124;5.422;2022-08-01T10:55:03;101962.91;;;22.02;56.21
71964;BME280;59834;52.124;5.422;2022-08-01T10:57:44;101966.91;;;21.79;57.58
71964;BME280;59834;52.124;5.422;2022-08-01T11:00:19;101961.75;;;22.15;56.85
71964;BME280;59834;52.124;5.422;2022-08-01T11:03:00;101962.56;;;22.34;57.51
71964;BME280;59834;52.124;5.422;2022-08-01T11:05:31;101960.16;;;21.94;56.17
71964;BME280;59834;52.124;5.422;2022-08-01T11:08:02;101969.72;;;21.68;58.79
71964;BME280;59834;52.124;5.422;2022-08-01T11:10:42;101969.72;;;21.68;58.41
71964;BME280;59834;52.124;5.422;2022-08-01T11:13:10;101968.34;;;21.54;59.11
71964;BME280;59834;52.124;5.422;2022-08-01T11:15:39;101959.25;;;21.37;60.40
71964;BME280;59834;52.124;5.422;2022-08-01T11:18:30;101967.22;;;21.56;61.47
71964;BME280;59834;52.124;5.422;2022-08-01T11:21:02;101963.28;;;21.60;60.79
71964;BME280;59834;52.124;5.422;2022-08-01T11:23:51;101972.13;;;21.51;60.12
71964;BME280;59834;52.124;5.422;2022-08-01T11:26:20;101970.28;;;21.71;60.06
71964;BME280;59834;52.124;5.422;2022-08-01T11:29:16;101981.50;;;21.75;58.67
71964;BME280;59834;52.124;5.422;2022-08-01T11:31:48;101981.63;;;21.83;57.92
71964;BME280;59834;52.124;5.422;2022-08-01T11:34:15;101987.66;;;21.85;57.27
71964;BME280;59834;52.124;5.422;2022-08-01T11:36:42;101988.75;;;21.92;58.05
71964;BME280;59834;52.124;5.422;2022-08-01T11:39:25;101992.41;;;22.01;56.50
71964;BME280;59834;52.124;5.422;2022-08-01T11:41:52;101993.41;;;21.80;57.79
71964;BME280;59834;52.124;5.422;2022-08-01T11:44:22;101996.94;;;21.81;58.43
71964;BME280;59834;52.124;5.422;2022-08-01T11:47:05;101983.72;;;21.89;56.49
71964;BME280;59834;52.124;5.422;2022-08-01T11:52:26;101983.28;;;21.94;52.90
71964;BME280;59834;52.124;5.422;2022-08-01T11:55:05;101978.63;;;22.15;54.07
71964;BME280;59834;52.124;5.422;2022-08-01T11:57:36;101980.28;;;22.53;52.05
71964;BME280;59834;52.124;5.422;2022-08-01T12:00:13;101975.84;;;22.72;52.86
71964;BME280;59834;52.124;5.422;2022-08-01T12:02:42;101976.47;;;22.56;50.79
71964;BME280;59834;52.124;5.422;2022-08-01T12:05:15;101992.56;;;22.36;50.80
71964;BME280;59834;52.124;5.422;2022-08-01T12:07:45;101995.69;;;22.59;49.25
71964;BME280;59834;52.124;5.422;2022-08-01T12:10:18;101991.84;;;22.44;49.56
71964;BME280;59834;52.124;5.422;2022-08-01T12:15:13;101987.63;;;22.51;48.22
71964;BME280;59834;52.124;5.422;2022-08-01T12:17:43;101996.91;;;22.47;48.03
71964;BME280;59834;52.124;5.422;2022-08-01T12:20:23;101996.56;;;22.13;50.07
71964;BME280;59834;52.124;5.422;2022-08-01T12:22:54;101996.44;;;22.15;50.04
71964;BME280;59834;52.124;5.422;2022-08-01T12:25:21;101996.81;;;22.29;50.90
71964;BME280;59834;52.124;5.422;2022-08-01T12:27:48;102002.91;;;22.49;49.61
71964;BME280;59834;52.124;5.422;2022-08-01T12:30:21;101994.84;;;22.31;48.80
71964;BME280;59834;52.124;5.422;2022-08-01T12:32:53;101991.84;;;22.44;49.72
71964;BME280;59834;52.124;5.422;2022-08-01T12:35:22;101986.69;;;22.70;48.14
71964;BME280;59834;52.124;5.422;2022-08-01T12:37:54;101989.69;;;22.57;46.25
71964;BME280;59834;52.124;5.422;2022-08-01T12:40:26;101992.31;;;22.95;46.73
71964;BME280;59834;52.124;5.422;2022-08-01T12:42:56;101990.19;;;23.16;47.56
71964;BME280;59834;52.124;5.422;2022-08-01T12:45:26;101985.69;;;22.99;47.87
71964;BME280;59834;52.124;5.422;2022-08-01T12:47:54;101998.06;;;22.90;48.39
71964;BME280;59834;52.124;5.422;2022-08-01T12:50:23;101990.88;;;22.73;46.94
71964;BME280;59834;52.124;5.422;2022-08-01T12:52:51;101993.16;;;22.95;47.57
71964;BME280;59834;52.124;5.422;2022-08-01T12:55:23;101987.94;;;22.66;46.95
71964;BME280;59834;52.124;5.422;2022-08-01T12:58:08;101988.41;;;22.34;47.32
71964;BME280;59834;52.124;5.422;2022-08-01T13:00:42;101992.63;;;22.27;47.33
71964;BME280;59834;52.124;5.422;2022-08-01T13:03:13;101991.19;;;22.32;47.78
71964;BME280;59834;52.124;5.422;2022-08-01T13:05:48;101988.28;;;22.53;46.48
71964;BME280;59834;52.124;5.422;2022-08-01T13:08:21;101989.28;;;22.80;46.59
71964;BME280;59834;52.124;5.422;2022-08-01T13:10:50;101982.97;;;22.81;47.09
71964;BME280;59834;52.124;5.422;2022-08-01T13:13:18;101986.28;;;22.65;47.05
71964;BME280;59834;52.124;5.422;2022-08-01T13:16:03;101995.00;;;23.13;47.45
71964;BME280;59834;52.124;5.422;2022-08-01T13:18:31;101987.72;;;22.87;45.03
71964;BME280;59834;52.124;5.422;2022-08-01T13:23:39;101983.88;;;23.35;42.78